EIWF

Waterford Airport

Waterford, Ireland
METAR EIWF 101500Z 22008KT 2500 DZ OVC002 10/09 Q1026 R21/1/////
Observed Flight Rules
Dec-10 @ 15:00 UTC (18 minutes ago) Instrument Flight Rules
Wind Visibility Clouds Conditions
220° at 8 knots 2,494 meters
  • Overcast at 200' AGL
  • Drizzle
Temperatures Readings
Current 10°C / 50°F
Dewpoint 9°C / 48°F
Humidity 94%
Altimeter 30.3" Hg
Pressure 1026 hPa
Elevation 36
METAR EIWF 101500Z 22008KT 2500 DZ OVC002 10/09 Q1026 R21/1/////
Observed Flight Rules
Dec-10 @ 15:00 UTC
(18 minutes ago)
LIFR
Wind Visibility
220° at 8 knots 2,494 meters
Clouds
  • Overcast at 200' AGL
Conditions
  • Drizzle
Temperature Dewpoint
10°C / 50°F 9°C / 48°F
Humidity Altimeter Pressure
94% 30.3" Hg 1026 hPa